sensor_id;sensor_type;location;lat;lon;timestamp;P1;durP1;ratioP1;P2;durP2;ratioP2
16727;SDS011;8482;54.396;18.590;2023-05-14T00:01:40;5.32;;;2.88;;
16727;SDS011;8482;54.396;18.590;2023-05-14T00:04:06;6.25;;;3.20;;
16727;SDS011;8482;54.396;18.590;2023-05-14T00:06:32;5.10;;;3.30;;
16727;SDS011;8482;54.396;18.590;2023-05-14T00:08:58;6.55;;;3.70;;
16727;SDS011;8482;54.396;18.590;2023-05-14T00:11:23;5.18;;;3.20;;
16727;SDS011;8482;54.396;18.590;2023-05-14T00:13:49;6.72;;;3.50;;
16727;SDS011;8482;54.396;18.590;2023-05-14T00:16:15;7.30;;;3.50;;
16727;SDS011;8482;54.396;18.590;2023-05-14T00:18:41;7.68;;;3.70;;
16727;SDS011;8482;54.396;18.590;2023-05-14T00:21:07;9.73;;;3.97;;
16727;SDS011;8482;54.396;18.590;2023-05-14T00:23:33;6.80;;;3.28;;
16727;SDS011;8482;54.396;18.590;2023-05-14T00:25:58;7.15;;;3.78;;
16727;SDS011;8482;54.396;18.590;2023-05-14T00:28:24;5.88;;;3.45;;
16727;SDS011;8482;54.396;18.590;2023-05-14T00:30:50;6.30;;;3.60;;
16727;SDS011;8482;54.396;18.590;2023-05-14T00:33:16;6.50;;;3.38;;
16727;SDS011;8482;54.396;18.590;2023-05-14T00:35:42;6.13;;;4.00;;
16727;SDS011;8482;54.396;18.590;2023-05-14T00:38:08;6.57;;;3.83;;
16727;SDS011;8482;54.396;18.590;2023-05-14T00:40:35;7.03;;;3.50;;
16727;SDS011;8482;54.396;18.590;2023-05-14T00:43:01;6.28;;;3.30;;
16727;SDS011;8482;54.396;18.590;2023-05-14T00:45:27;4.80;;;3.13;;
16727;SDS011;8482;54.396;18.590;2023-05-14T00:47:53;5.05;;;3.10;;
16727;SDS011;8482;54.396;18.590;2023-05-14T00:50:19;5.88;;;3.10;;
16727;SDS011;8482;54.396;18.590;2023-05-14T00:52:46;6.75;;;3.55;;
16727;SDS011;8482;54.396;18.590;2023-05-14T00:55:13;4.50;;;2.45;;
16727;SDS011;8482;54.396;18.590;2023-05-14T00:57:40;4.50;;;3.20;;
16727;SDS011;8482;54.396;18.590;2023-05-14T01:00:07;5.35;;;3.22;;
16727;SDS011;8482;54.396;18.590;2023-05-14T01:02:33;7.18;;;3.20;;
16727;SDS011;8482;54.396;18.590;2023-05-14T01:04:59;6.88;;;3.75;;
16727;SDS011;8482;54.396;18.590;2023-05-14T01:07:36;5.85;;;3.10;;
16727;SDS011;8482;54.396;18.590;2023-05-14T01:10:18;5.10;;;3.20;;
16727;SDS011;8482;54.396;18.590;2023-05-14T01:15:32;4.95;;;2.90;;
16727;SDS011;8482;54.396;18.590;2023-05-14T01:18:10;6.03;;;3.25;;
16727;SDS011;8482;54.396;18.590;2023-05-14T01:20:40;5.03;;;3.20;;
16727;SDS011;8482;54.396;18.590;2023-05-14T01:23:06;6.10;;;3.50;;
16727;SDS011;8482;54.396;18.590;2023-05-14T01:25:32;5.47;;;3.15;;
16727;SDS011;8482;54.396;18.590;2023-05-14T01:28:10;6.38;;;3.33;;
16727;SDS011;8482;54.396;18.590;2023-05-14T01:30:48;5.90;;;3.22;;
16727;SDS011;8482;54.396;18.590;2023-05-14T01:33:24;7.68;;;3.70;;
16727;SDS011;8482;54.396;18.590;2023-05-14T01:35:53;5.72;;;3.58;;
16727;SDS011;8482;54.396;18.590;2023-05-14T01:38:20;7.63;;;3.90;;
16727;SDS011;8482;54.396;18.590;2023-05-14T01:40:47;5.85;;;3.63;;
16727;SDS011;8482;54.396;18.590;2023-05-14T01:43:15;6.43;;;3.85;;
16727;SDS011;8482;54.396;18.590;2023-05-14T01:45:42;6.80;;;3.28;;
16727;SDS011;8482;54.396;18.590;2023-05-14T01:48:08;5.43;;;3.08;;
16727;SDS011;8482;54.396;18.590;2023-05-14T01:50:33;6.50;;;3.70;;
16727;SDS011;8482;54.396;18.590;2023-05-14T01:52:59;6.55;;;3.85;;
16727;SDS011;8482;54.396;18.590;2023-05-14T01:55:25;8.40;;;3.50;;
16727;SDS011;8482;54.396;18.590;2023-05-14T01:57:51;5.55;;;3.47;;
16727;SDS011;8482;54.396;18.590;2023-05-14T02:00:18;5.53;;;3.45;;
16727;SDS011;8482;54.396;18.590;2023-05-14T02:02:46;6.55;;;3.60;;
16727;SDS011;8482;54.396;18.590;2023-05-14T02:05:11;6.07;;;3.50;;
16727;SDS011;8482;54.396;18.590;2023-05-14T02:07:38;6.93;;;3.53;;
16727;SDS011;8482;54.396;18.590;2023-05-14T02:10:04;6.78;;;3.40;;
16727;SDS011;8482;54.396;18.590;2023-05-14T02:12:31;6.25;;;3.97;;
16727;SDS011;8482;54.396;18.590;2023-05-14T02:14:57;6.70;;;3.40;;
16727;SDS011;8482;54.396;18.590;2023-05-14T02:17:25;5.18;;;3.13;;
16727;SDS011;8482;54.396;18.590;2023-05-14T02:19:51;8.35;;;3.58;;
16727;SDS011;8482;54.396;18.590;2023-05-14T02:22:17;4.85;;;3.33;;
16727;SDS011;8482;54.396;18.590;2023-05-14T02:24:43;7.32;;;3.25;;
16727;SDS011;8482;54.396;18.590;2023-05-14T02:27:09;5.88;;;3.53;;
16727;SDS011;8482;54.396;18.590;2023-05-14T02:29:36;6.05;;;3.47;;
16727;SDS011;8482;54.396;18.590;2023-05-14T02:32:02;5.75;;;3.35;;
16727;SDS011;8482;54.396;18.590;2023-05-14T02:34:28;5.65;;;3.60;;
16727;SDS011;8482;54.396;18.590;2023-05-14T02:36:54;5.18;;;3.05;;
16727;SDS011;8482;54.396;18.590;2023-05-14T02:39:20;7.00;;;3.90;;
16727;SDS011;8482;54.396;18.590;2023-05-14T02:41:46;6.65;;;3.88;;
16727;SDS011;8482;54.396;18.590;2023-05-14T02:44:12;6.82;;;3.58;;
16727;SDS011;8482;54.396;18.590;2023-05-14T02:46:37;5.47;;;3.47;;
16727;SDS011;8482;54.396;18.590;2023-05-14T02:49:03;6.68;;;3.75;;
16727;SDS011;8482;54.396;18.590;2023-05-14T02:51:29;7.88;;;3.78;;
16727;SDS011;8482;54.396;18.590;2023-05-14T02:53:55;5.53;;;3.55;;
16727;SDS011;8482;54.396;18.590;2023-05-14T02:56:21;5.68;;;3.65;;
16727;SDS011;8482;54.396;18.590;2023-05-14T02:58:47;5.65;;;3.30;;
16727;SDS011;8482;54.396;18.590;2023-05-14T03:01:12;5.88;;;3.60;;
16727;SDS011;8482;54.396;18.590;2023-05-14T03:03:38;6.72;;;3.60;;
16727;SDS011;8482;54.396;18.590;2023-05-14T03:06:04;6.47;;;3.63;;
16727;SDS011;8482;54.396;18.590;2023-05-14T03:08:30;7.07;;;3.63;;
16727;SDS011;8482;54.396;18.590;2023-05-14T03:10:56;5.35;;;3.63;;
16727;SDS011;8482;54.396;18.590;2023-05-14T03:13:22;7.05;;;3.92;;
16727;SDS011;8482;54.396;18.590;2023-05-14T03:15:47;7.38;;;4.50;;
16727;SDS011;8482;54.396;18.590;2023-05-14T03:18:18;6.97;;;4.03;;
16727;SDS011;8482;54.396;18.590;2023-05-14T03:20:45;7.28;;;3.67;;
16727;SDS011;8482;54.396;18.590;2023-05-14T03:23:11;7.00;;;3.92;;
16727;SDS011;8482;54.396;18.590;2023-05-14T03:25:38;6.25;;;3.60;;
16727;SDS011;8482;54.396;18.590;2023-05-14T03:28:05;8.27;;;4.20;;
16727;SDS011;8482;54.396;18.590;2023-05-14T03:30:31;8.85;;;4.70;;
16727;SDS011;8482;54.396;18.590;2023-05-14T03:32:56;11.35;;;6.00;;
16727;SDS011;8482;54.396;18.590;2023-05-14T03:35:22;14.32;;;7.25;;
16727;SDS011;8482;54.396;18.590;2023-05-14T03:37:48;12.18;;;6.78;;
16727;SDS011;8482;54.396;18.590;2023-05-14T03:40:16;11.02;;;6.95;;
16727;SDS011;8482;54.396;18.590;2023-05-14T03:42:42;11.48;;;6.90;;
16727;SDS011;8482;54.396;18.590;2023-05-14T03:45:08;11.77;;;6.10;;
16727;SDS011;8482;54.396;18.590;2023-05-14T03:47:35;10.88;;;5.70;;
16727;SDS011;8482;54.396;18.590;2023-05-14T03:50:00;8.98;;;4.55;;
16727;SDS011;8482;54.396;18.590;2023-05-14T03:52:26;7.82;;;4.57;;
16727;SDS011;8482;54.396;18.590;2023-05-14T03:54:52;6.93;;;4.30;;
16727;SDS011;8482;54.396;18.590;2023-05-14T03:57:18;8.82;;;4.65;;
16727;SDS011;8482;54.396;18.590;2023-05-14T03:59:43;7.30;;;4.30;;
16727;SDS011;8482;54.396;18.590;2023-05-14T04:02:09;7.03;;;4.25;;
16727;SDS011;8482;54.396;18.590;2023-05-14T04:04:35;6.18;;;3.92;;
16727;SDS011;8482;54.396;18.590;2023-05-14T04:07:01;7.85;;;4.45;;
16727;SDS011;8482;54.396;18.590;2023-05-14T04:09:27;7.00;;;4.20;;
16727;SDS011;8482;54.396;18.590;2023-05-14T04:11:53;7.40;;;4.45;;
16727;SDS011;8482;54.396;18.590;2023-05-14T04:14:18;8.25;;;4.70;;
16727;SDS011;8482;54.396;18.590;2023-05-14T04:16:44;7.18;;;4.30;;
16727;SDS011;8482;54.396;18.590;2023-05-14T04:19:10;7.65;;;4.50;;
16727;SDS011;8482;54.396;18.590;2023-05-14T04:21:36;7.00;;;4.18;;
16727;SDS011;8482;54.396;18.590;2023-05-14T04:24:02;9.10;;;5.00;;
16727;SDS011;8482;54.396;18.590;2023-05-14T04:26:28;7.63;;;4.07;;
16727;SDS011;8482;54.396;18.590;2023-05-14T04:28:53;7.30;;;4.32;;
16727;SDS011;8482;54.396;18.590;2023-05-14T04:31:19;6.68;;;4.57;;
16727;SDS011;8482;54.396;18.590;2023-05-14T04:33:45;11.27;;;6.10;;
16727;SDS011;8482;54.396;18.590;2023-05-14T04:36:11;8.43;;;5.38;;
16727;SDS011;8482;54.396;18.590;2023-05-14T04:38:37;9.88;;;6.78;;
16727;SDS011;8482;54.396;18.590;2023-05-14T04:41:03;10.68;;;6.60;;
16727;SDS011;8482;54.396;18.590;2023-05-14T04:43:30;9.10;;;6.10;;
16727;SDS011;8482;54.396;18.590;2023-05-14T04:45:55;8.43;;;5.63;;
16727;SDS011;8482;54.396;18.590;2023-05-14T04:48:21;8.25;;;5.43;;
16727;SDS011;8482;54.396;18.590;2023-05-14T04:50:47;7.63;;;4.65;;
16727;SDS011;8482;54.396;18.590;2023-05-14T04:53:13;6.97;;;4.97;;
16727;SDS011;8482;54.396;18.590;2023-05-14T04:55:38;7.35;;;4.40;;
16727;SDS011;8482;54.396;18.590;2023-05-14T04:58:04;7.78;;;4.70;;
16727;SDS011;8482;54.396;18.590;2023-05-14T05:00:30;6.63;;;4.43;;
16727;SDS011;8482;54.396;18.590;2023-05-14T05:02:57;6.20;;;4.00;;
16727;SDS011;8482;54.396;18.590;2023-05-14T05:05:23;6.88;;;4.60;;
16727;SDS011;8482;54.396;18.590;2023-05-14T05:07:49;6.60;;;4.00;;
16727;SDS011;8482;54.396;18.590;2023-05-14T05:10:15;7.95;;;4.60;;
16727;SDS011;8482;54.396;18.590;2023-05-14T05:12:40;6.47;;;4.22;;
16727;SDS011;8482;54.396;18.590;2023-05-14T05:15:08;6.88;;;4.28;;
16727;SDS011;8482;54.396;18.590;2023-05-14T05:17:34;7.18;;;4.50;;
16727;SDS011;8482;54.396;18.590;2023-05-14T05:20:01;7.75;;;4.57;;
16727;SDS011;8482;54.396;18.590;2023-05-14T05:22:28;8.88;;;4.38;;
16727;SDS011;8482;54.396;18.590;2023-05-14T05:24:54;9.85;;;5.10;;
16727;SDS011;8482;54.396;18.590;2023-05-14T05:27:20;8.00;;;4.50;;
16727;SDS011;8482;54.396;18.590;2023-05-14T05:29:46;7.85;;;4.57;;
16727;SDS011;8482;54.396;18.590;2023-05-14T05:32:12;8.05;;;4.30;;
16727;SDS011;8482;54.396;18.590;2023-05-14T05:34:38;6.75;;;4.03;;
16727;SDS011;8482;54.396;18.590;2023-05-14T05:37:05;6.32;;;4.50;;
16727;SDS011;8482;54.396;18.590;2023-05-14T05:39:33;5.90;;;3.83;;
16727;SDS011;8482;54.396;18.590;2023-05-14T05:42:01;7.53;;;4.60;;
16727;SDS011;8482;54.396;18.590;2023-05-14T05:44:29;6.18;;;3.40;;
16727;SDS011;8482;54.396;18.590;2023-05-14T05:46:55;6.80;;;3.70;;
16727;SDS011;8482;54.396;18.590;2023-05-14T05:49:21;6.60;;;4.00;;
16727;SDS011;8482;54.396;18.590;2023-05-14T05:51:47;7.15;;;4.00;;
16727;SDS011;8482;54.396;18.590;2023-05-14T05:54:13;6.65;;;3.72;;
16727;SDS011;8482;54.396;18.590;2023-05-14T05:56:39;6.50;;;3.55;;
16727;SDS011;8482;54.396;18.590;2023-05-14T05:59:05;7.70;;;4.03;;
16727;SDS011;8482;54.396;18.590;2023-05-14T06:01:30;5.82;;;3.80;;
16727;SDS011;8482;54.396;18.590;2023-05-14T06:03:56;6.38;;;4.25;;
16727;SDS011;8482;54.396;18.590;2023-05-14T06:06:22;5.85;;;4.03;;
16727;SDS011;8482;54.396;18.590;2023-05-14T06:08:48;6.07;;;4.00;;
16727;SDS011;8482;54.396;18.590;2023-05-14T06:11:14;5.50;;;3.55;;
16727;SDS011;8482;54.396;18.590;2023-05-14T06:13:41;6.97;;;3.58;;
16727;SDS011;8482;54.396;18.590;2023-05-14T06:16:06;7.65;;;4.00;;
16727;SDS011;8482;54.396;18.590;2023-05-14T06:18:32;7.40;;;3.72;;
16727;SDS011;8482;54.396;18.590;2023-05-14T06:20:58;4.85;;;3.20;;
16727;SDS011;8482;54.396;18.590;2023-05-14T06:23:24;5.03;;;3.20;;
16727;SDS011;8482;54.396;18.590;2023-05-14T06:25:50;6.00;;;3.25;;
16727;SDS011;8482;54.396;18.590;2023-05-14T06:28:16;4.88;;;3.22;;
16727;SDS011;8482;54.396;18.590;2023-05-14T06:30:42;5.93;;;3.10;;
16727;SDS011;8482;54.396;18.590;2023-05-14T06:33:08;4.97;;;3.10;;
16727;SDS011;8482;54.396;18.590;2023-05-14T06:35:34;6.65;;;3.10;;
16727;SDS011;8482;54.396;18.590;2023-05-14T06:38:01;4.18;;;2.92;;
16727;SDS011;8482;54.396;18.590;2023-05-14T06:40:26;5.28;;;3.55;;
16727;SDS011;8482;54.396;18.590;2023-05-14T06:42:52;5.43;;;3.42;;
16727;SDS011;8482;54.396;18.590;2023-05-14T06:45:18;5.15;;;3.08;;
16727;SDS011;8482;54.396;18.590;2023-05-14T06:47:44;5.22;;;3.08;;
16727;SDS011;8482;54.396;18.590;2023-05-14T06:50:10;4.43;;;2.70;;
16727;SDS011;8482;54.396;18.590;2023-05-14T06:52:36;4.88;;;3.03;;
16727;SDS011;8482;54.396;18.590;2023-05-14T06:55:02;4.95;;;2.92;;
16727;SDS011;8482;54.396;18.590;2023-05-14T06:57:28;4.60;;;2.75;;
16727;SDS011;8482;54.396;18.590;2023-05-14T06:59:54;4.72;;;2.92;;
16727;SDS011;8482;54.396;18.590;2023-05-14T07:02:21;4.75;;;3.03;;
16727;SDS011;8482;54.396;18.590;2023-05-14T07:04:47;4.53;;;2.88;;
16727;SDS011;8482;54.396;18.590;2023-05-14T07:07:13;5.13;;;2.85;;
16727;SDS011;8482;54.396;18.590;2023-05-14T07:09:40;4.75;;;2.97;;
16727;SDS011;8482;54.396;18.590;2023-05-14T07:12:06;5.10;;;2.80;;
16727;SDS011;8482;54.396;18.590;2023-05-14T07:14:33;6.57;;;3.00;;
16727;SDS011;8482;54.396;18.590;2023-05-14T07:16:59;5.25;;;2.80;;
16727;SDS011;8482;54.396;18.590;2023-05-14T07:19:25;5.78;;;3.30;;
16727;SDS011;8482;54.396;18.590;2023-05-14T07:21:52;5.20;;;2.95;;
16727;SDS011;8482;54.396;18.590;2023-05-14T07:24:18;5.80;;;3.38;;
16727;SDS011;8482;54.396;18.590;2023-05-14T07:26:46;5.88;;;2.90;;
16727;SDS011;8482;54.396;18.590;2023-05-14T07:29:12;5.00;;;3.08;;
16727;SDS011;8482;54.396;18.590;2023-05-14T07:31:39;5.78;;;3.22;;
16727;SDS011;8482;54.396;18.590;2023-05-14T07:34:05;5.82;;;3.13;;
16727;SDS011;8482;54.396;18.590;2023-05-14T07:36:33;5.97;;;3.72;;
16727;SDS011;8482;54.396;18.590;2023-05-14T07:38:59;7.18;;;3.75;;
16727;SDS011;8482;54.396;18.590;2023-05-14T07:41:25;7.57;;;3.67;;
16727;SDS011;8482;54.396;18.590;2023-05-14T07:43:51;5.95;;;3.65;;
16727;SDS011;8482;54.396;18.590;2023-05-14T07:46:17;7.13;;;3.75;;
16727;SDS011;8482;54.396;18.590;2023-05-14T07:48:43;6.90;;;3.75;;
16727;SDS011;8482;54.396;18.590;2023-05-14T07:51:09;5.53;;;3.40;;
16727;SDS011;8482;54.396;18.590;2023-05-14T07:53:35;5.55;;;3.30;;
16727;SDS011;8482;54.396;18.590;2023-05-14T07:56:01;4.93;;;3.25;;
16727;SDS011;8482;54.396;18.590;2023-05-14T07:58:27;5.82;;;3.00;;
16727;SDS011;8482;54.396;18.590;2023-05-14T08:00:53;5.13;;;3.25;;
16727;SDS011;8482;54.396;18.590;2023-05-14T08:03:20;4.60;;;2.90;;
16727;SDS011;8482;54.396;18.590;2023-05-14T08:05:46;4.72;;;2.97;;
16727;SDS011;8482;54.396;18.590;2023-05-14T08:08:12;4.40;;;3.10;;
16727;SDS011;8482;54.396;18.590;2023-05-14T08:10:38;5.07;;;3.25;;
16727;SDS011;8482;54.396;18.590;2023-05-14T08:13:10;5.00;;;3.25;;
16727;SDS011;8482;54.396;18.590;2023-05-14T08:15:38;4.97;;;3.15;;
16727;SDS011;8482;54.396;18.590;2023-05-14T08:18:17;5.10;;;3.20;;
16727;SDS011;8482;54.396;18.590;2023-05-14T08:20:43;5.07;;;3.42;;
16727;SDS011;8482;54.396;18.590;2023-05-14T08:23:09;8.05;;;3.35;;
16727;SDS011;8482;54.396;18.590;2023-05-14T08:25:36;4.75;;;3.10;;
16727;SDS011;8482;54.396;18.590;2023-05-14T08:28:02;5.57;;;3.00;;
16727;SDS011;8482;54.396;18.590;2023-05-14T08:30:32;6.03;;;3.20;;
16727;SDS011;8482;54.396;18.590;2023-05-14T08:32:59;4.35;;;3.05;;
16727;SDS011;8482;54.396;18.590;2023-05-14T08:35:25;4.63;;;3.13;;
16727;SDS011;8482;54.396;18.590;2023-05-14T08:37:51;6.05;;;3.35;;
16727;SDS011;8482;54.396;18.590;2023-05-14T08:40:17;5.90;;;3.60;;
16727;SDS011;8482;54.396;18.590;2023-05-14T08:42:43;5.95;;;3.63;;
16727;SDS011;8482;54.396;18.590;2023-05-14T08:45:12;5.00;;;3.33;;
16727;SDS011;8482;54.396;18.590;2023-05-14T08:47:46;4.72;;;3.17;;
16727;SDS011;8482;54.396;18.590;2023-05-14T08:50:14;6.38;;;3.35;;
16727;SDS011;8482;54.396;18.590;2023-05-14T08:52:41;6.22;;;3.50;;
16727;SDS011;8482;54.396;18.590;2023-05-14T08:55:08;6.78;;;3.85;;
16727;SDS011;8482;54.396;18.590;2023-05-14T08:57:40;5.53;;;3.47;;
16727;SDS011;8482;54.396;18.590;2023-05-14T09:00:07;5.55;;;3.50;;
16727;SDS011;8482;54.396;18.590;2023-05-14T09:02:36;5.70;;;3.13;;
16727;SDS011;8482;54.396;18.590;2023-05-14T09:05:05;5.38;;;3.38;;
16727;SDS011;8482;54.396;18.590;2023-05-14T09:07:33;5.32;;;3.42;;
16727;SDS011;8482;54.396;18.590;2023-05-14T09:10:00;5.45;;;3.30;;
16727;SDS011;8482;54.396;18.590;2023-05-14T09:12:27;5.10;;;3.13;;
16727;SDS011;8482;54.396;18.590;2023-05-14T09:14:53;5.32;;;3.40;;
16727;SDS011;8482;54.396;18.590;2023-05-14T09:17:19;4.28;;;2.88;;
16727;SDS011;8482;54.396;18.590;2023-05-14T09:19:45;5.45;;;3.42;;
16727;SDS011;8482;54.396;18.590;2023-05-14T09:22:14;5.90;;;3.72;;
16727;SDS011;8482;54.396;18.590;2023-05-14T09:24:42;5.63;;;3.40;;
16727;SDS011;8482;54.396;18.590;2023-05-14T09:27:14;7.05;;;3.58;;
16727;SDS011;8482;54.396;18.590;2023-05-14T09:29:44;5.35;;;3.50;;
16727;SDS011;8482;54.396;18.590;2023-05-14T09:32:11;5.25;;;3.53;;
16727;SDS011;8482;54.396;18.590;2023-05-14T09:34:37;5.07;;;3.40;;
16727;SDS011;8482;54.396;18.590;2023-05-14T09:37:05;6.25;;;4.30;;
16727;SDS011;8482;54.396;18.590;2023-05-14T09:39:33;6.70;;;4.50;;
16727;SDS011;8482;54.396;18.590;2023-05-14T09:42:01;6.35;;;4.10;;
16727;SDS011;8482;54.396;18.590;2023-05-14T09:44:27;5.10;;;3.40;;
16727;SDS011;8482;54.396;18.590;2023-05-14T09:46:53;4.75;;;3.22;;
16727;SDS011;8482;54.396;18.590;2023-05-14T09:49:20;5.80;;;3.67;;
16727;SDS011;8482;54.396;18.590;2023-05-14T09:51:47;5.50;;;3.90;;
16727;SDS011;8482;54.396;18.590;2023-05-14T09:54:14;4.90;;;3.20;;
16727;SDS011;8482;54.396;18.590;2023-05-14T09:56:40;4.43;;;2.90;;
16727;SDS011;8482;54.396;18.590;2023-05-14T09:59:07;5.00;;;2.90;;
16727;SDS011;8482;54.396;18.590;2023-05-14T10:01:33;4.72;;;2.90;;
16727;SDS011;8482;54.396;18.590;2023-05-14T10:04:02;5.25;;;3.35;;
16727;SDS011;8482;54.396;18.590;2023-05-14T10:06:32;5.65;;;2.83;;
16727;SDS011;8482;54.396;18.590;2023-05-14T10:09:04;5.05;;;3.25;;
16727;SDS011;8482;54.396;18.590;2023-05-14T10:11:41;6.97;;;3.60;;
16727;SDS011;8482;54.396;18.590;2023-05-14T10:14:17;4.75;;;3.13;;
16727;SDS011;8482;54.396;18.590;2023-05-14T10:17:02;4.80;;;3.08;;
16727;SDS011;8482;54.396;18.590;2023-05-14T10:19:31;4.30;;;2.88;;
16727;SDS011;8482;54.396;18.590;2023-05-14T10:22:05;5.28;;;3.10;;
16727;SDS011;8482;54.396;18.590;2023-05-14T10:24:35;4.65;;;3.10;;
16727;SDS011;8482;54.396;18.590;2023-05-14T10:27:03;4.68;;;3.20;;
16727;SDS011;8482;54.396;18.590;2023-05-14T10:29:33;5.18;;;3.35;;
16727;SDS011;8482;54.396;18.590;2023-05-14T10:32:07;4.55;;;3.28;;
16727;SDS011;8482;54.396;18.590;2023-05-14T10:34:40;4.03;;;2.90;;
16727;SDS011;8482;54.396;18.590;2023-05-14T10:37:09;4.75;;;2.97;;
16727;SDS011;8482;54.396;18.590;2023-05-14T10:39:43;4.75;;;2.95;;
16727;SDS011;8482;54.396;18.590;2023-05-14T10:42:21;5.50;;;3.72;;
16727;SDS011;8482;54.396;18.590;2023-05-14T10:44:58;7.93;;;4.43;;
16727;SDS011;8482;54.396;18.590;2023-05-14T10:47:31;9.23;;;5.75;;
16727;SDS011;8482;54.396;18.590;2023-05-14T10:50:02;7.97;;;5.70;;
16727;SDS011;8482;54.396;18.590;2023-05-14T10:52:31;6.20;;;4.35;;
16727;SDS011;8482;54.396;18.590;2023-05-14T10:54:58;6.75;;;4.68;;
16727;SDS011;8482;54.396;18.590;2023-05-14T10:57:35;6.63;;;4.10;;
16727;SDS011;8482;54.396;18.590;2023-05-14T11:00:04;5.70;;;3.83;;
16727;SDS011;8482;54.396;18.590;2023-05-14T11:02:36;6.07;;;3.88;;
16727;SDS011;8482;54.396;18.590;2023-05-14T11:05:08;5.40;;;3.50;;
16727;SDS011;8482;54.396;18.590;2023-05-14T11:07:41;4.88;;;3.40;;
16727;SDS011;8482;54.396;18.590;2023-05-14T11:10:13;7.75;;;4.78;;
16727;SDS011;8482;54.396;18.590;2023-05-14T11:12:46;7.32;;;4.28;;
16727;SDS011;8482;54.396;18.590;2023-05-14T11:15:18;6.47;;;4.00;;
16727;SDS011;8482;54.396;18.590;2023-05-14T11:17:50;6.40;;;3.80;;
16727;SDS011;8482;54.396;18.590;2023-05-14T11:20:17;6.07;;;3.58;;
16727;SDS011;8482;54.396;18.590;2023-05-14T11:22:45;6.57;;;2.92;;
16727;SDS011;8482;54.396;18.590;2023-05-14T11:25:13;4.43;;;3.08;;
16727;SDS011;8482;54.396;18.590;2023-05-14T11:27:43;5.38;;;3.38;;
16727;SDS011;8482;54.396;18.590;2023-05-14T11:30:15;5.10;;;3.03;;
16727;SDS011;8482;54.396;18.590;2023-05-14T11:32:44;4.72;;;3.08;;
16727;SDS011;8482;54.396;18.590;2023-05-14T11:35:12;4.90;;;3.20;;
16727;SDS011;8482;54.396;18.590;2023-05-14T11:37:39;4.50;;;3.13;;
16727;SDS011;8482;54.396;18.590;2023-05-14T11:40:06;5.75;;;3.63;;
16727;SDS011;8482;54.396;18.590;2023-05-14T11:42:40;5.00;;;3.00;;
16727;SDS011;8482;54.396;18.590;2023-05-14T11:45:06;4.97;;;3.08;;
16727;SDS011;8482;54.396;18.590;2023-05-14T11:47:36;5.90;;;3.10;;
16727;SDS011;8482;54.396;18.590;2023-05-14T11:50:02;5.03;;;3.13;;
16727;SDS011;8482;54.396;18.590;2023-05-14T11:52:29;6.25;;;3.47;;
16727;SDS011;8482;54.396;18.590;2023-05-14T11:54:55;4.82;;;3.30;;
16727;SDS011;8482;54.396;18.590;2023-05-14T11:57:21;6.78;;;4.70;;
16727;SDS011;8482;54.396;18.590;2023-05-14T11:59:47;7.78;;;5.07;;
16727;SDS011;8482;54.396;18.590;2023-05-14T12:02:21;5.70;;;4.05;;
16727;SDS011;8482;54.396;18.590;2023-05-14T12:04:50;6.45;;;3.92;;
16727;SDS011;8482;54.396;18.590;2023-05-14T12:07:17;5.35;;;3.20;;
16727;SDS011;8482;54.396;18.590;2023-05-14T12:09:47;5.60;;;3.80;;
16727;SDS011;8482;54.396;18.590;2023-05-14T12:12:14;4.95;;;3.30;;
16727;SDS011;8482;54.396;18.590;2023-05-14T12:14:46;6.70;;;3.65;;
16727;SDS011;8482;54.396;18.590;2023-05-14T12:17:17;7.00;;;3.45;;
16727;SDS011;8482;54.396;18.590;2023-05-14T12:19:46;8.55;;;4.47;;
16727;SDS011;8482;54.396;18.590;2023-05-14T12:22:16;8.05;;;4.93;;
16727;SDS011;8482;54.396;18.590;2023-05-14T12:24:56;7.57;;;4.60;;
16727;SDS011;8482;54.396;18.590;2023-05-14T12:27:27;5.75;;;3.70;;
16727;SDS011;8482;54.396;18.590;2023-05-14T12:30:04;6.05;;;3.65;;
16727;SDS011;8482;54.396;18.590;2023-05-14T12:32:31;5.90;;;3.47;;
16727;SDS011;8482;54.396;18.590;2023-05-14T12:34:58;5.78;;;3.80;;
16727;SDS011;8482;54.396;18.590;2023-05-14T12:37:25;5.70;;;3.50;;
16727;SDS011;8482;54.396;18.590;2023-05-14T12:39:51;5.00;;;3.67;;
16727;SDS011;8482;54.396;18.590;2023-05-14T12:42:17;4.68;;;3.25;;
16727;SDS011;8482;54.396;18.590;2023-05-14T12:44:43;4.95;;;3.55;;
16727;SDS011;8482;54.396;18.590;2023-05-14T12:47:09;4.85;;;3.22;;
16727;SDS011;8482;54.396;18.590;2023-05-14T12:49:35;8.55;;;4.50;;
16727;SDS011;8482;54.396;18.590;2023-05-14T12:52:01;6.13;;;3.80;;
16727;SDS011;8482;54.396;18.590;2023-05-14T12:54:27;7.78;;;4.53;;
16727;SDS011;8482;54.396;18.590;2023-05-14T12:56:53;5.47;;;3.53;;
16727;SDS011;8482;54.396;18.590;2023-05-14T12:59:19;5.00;;;3.40;;
16727;SDS011;8482;54.396;18.590;2023-05-14T13:01:45;7.15;;;4.72;;
16727;SDS011;8482;54.396;18.590;2023-05-14T13:04:11;8.15;;;4.45;;
16727;SDS011;8482;54.396;18.590;2023-05-14T13:06:37;5.50;;;3.75;;
16727;SDS011;8482;54.396;18.590;2023-05-14T13:09:06;5.93;;;3.72;;
16727;SDS011;8482;54.396;18.590;2023-05-14T13:11:32;6.10;;;3.60;;
16727;SDS011;8482;54.396;18.590;2023-05-14T13:13:58;6.25;;;3.50;;
16727;SDS011;8482;54.396;18.590;2023-05-14T13:16:28;4.13;;;2.83;;
16727;SDS011;8482;54.396;18.590;2023-05-14T13:18:55;6.80;;;4.18;;
16727;SDS011;8482;54.396;18.590;2023-05-14T13:21:21;5.97;;;3.60;;
16727;SDS011;8482;54.396;18.590;2023-05-14T13:23:47;6.13;;;3.42;;
16727;SDS011;8482;54.396;18.590;2023-05-14T13:26:13;5.18;;;3.28;;
16727;SDS011;8482;54.396;18.590;2023-05-14T13:28:40;7.57;;;4.20;;
16727;SDS011;8482;54.396;18.590;2023-05-14T13:31:08;5.15;;;3.60;;
16727;SDS011;8482;54.396;18.590;2023-05-14T13:33:36;6.53;;;3.83;;
16727;SDS011;8482;54.396;18.590;2023-05-14T13:36:05;6.60;;;4.10;;
16727;SDS011;8482;54.396;18.590;2023-05-14T13:38:32;5.55;;;3.30;;
16727;SDS011;8482;54.396;18.590;2023-05-14T13:40:58;7.80;;;3.55;;
16727;SDS011;8482;54.396;18.590;2023-05-14T13:43:29;5.63;;;3.70;;
16727;SDS011;8482;54.396;18.590;2023-05-14T13:45:57;5.07;;;3.45;;
16727;SDS011;8482;54.396;18.590;2023-05-14T13:48:23;7.00;;;3.20;;
16727;SDS011;8482;54.396;18.590;2023-05-14T13:50:51;5.68;;;3.30;;
16727;SDS011;8482;54.396;18.590;2023-05-14T13:53:17;4.97;;;2.92;;
16727;SDS011;8482;54.396;18.590;2023-05-14T13:55:45;4.57;;;2.90;;
16727;SDS011;8482;54.396;18.590;2023-05-14T13:58:10;4.03;;;2.50;;
16727;SDS011;8482;54.396;18.590;2023-05-14T14:00:36;5.32;;;2.83;;
16727;SDS011;8482;54.396;18.590;2023-05-14T14:03:03;3.85;;;2.28;;
16727;SDS011;8482;54.396;18.590;2023-05-14T14:05:29;4.68;;;2.33;;
16727;SDS011;8482;54.396;18.590;2023-05-14T14:07:56;4.90;;;2.40;;
16727;SDS011;8482;54.396;18.590;2023-05-14T14:10:22;3.28;;;2.10;;
16727;SDS011;8482;54.396;18.590;2023-05-14T14:12:48;4.07;;;2.38;;
16727;SDS011;8482;54.396;18.590;2023-05-14T14:15:14;3.25;;;2.05;;
16727;SDS011;8482;54.396;18.590;2023-05-14T14:17:40;4.60;;;2.40;;
16727;SDS011;8482;54.396;18.590;2023-05-14T14:20:06;5.47;;;3.00;;
16727;SDS011;8482;54.396;18.590;2023-05-14T14:22:33;4.18;;;2.65;;
16727;SDS011;8482;54.396;18.590;2023-05-14T14:24:59;4.68;;;2.40;;
16727;SDS011;8482;54.396;18.590;2023-05-14T14:27:26;5.45;;;3.03;;
16727;SDS011;8482;54.396;18.590;2023-05-14T14:29:52;5.03;;;2.58;;
16727;SDS011;8482;54.396;18.590;2023-05-14T14:32:18;6.47;;;2.95;;
16727;SDS011;8482;54.396;18.590;2023-05-14T14:34:44;4.20;;;2.60;;
16727;SDS011;8482;54.396;18.590;2023-05-14T14:37:10;3.28;;;2.10;;
16727;SDS011;8482;54.396;18.590;2023-05-14T14:39:36;3.63;;;2.30;;
16727;SDS011;8482;54.396;18.590;2023-05-14T14:42:02;4.05;;;2.80;;
16727;SDS011;8482;54.396;18.590;2023-05-14T14:44:28;4.03;;;2.70;;
16727;SDS011;8482;54.396;18.590;2023-05-14T14:46:54;6.50;;;3.00;;
16727;SDS011;8482;54.396;18.590;2023-05-14T14:49:19;4.60;;;2.97;;
16727;SDS011;8482;54.396;18.590;2023-05-14T14:51:45;4.28;;;2.70;;